sensor_id;sensor_type;location;lat;lon;timestamp;P1;durP1;ratioP1;P2;durP2;ratioP2
75854;SDS011;64502;59.976;30.316;2024-01-27T00:01:13;19.00;;;9.18;;
75854;SDS011;64502;59.976;30.316;2024-01-27T00:03:38;19.17;;;8.68;;
75854;SDS011;64502;59.976;30.316;2024-01-27T00:06:04;17.65;;;8.45;;
75854;SDS011;64502;59.976;30.316;2024-01-27T00:08:29;20.58;;;9.30;;
75854;SDS011;64502;59.976;30.316;2024-01-27T00:10:55;18.02;;;7.75;;
75854;SDS011;64502;59.976;30.316;2024-01-27T00:13:21;19.33;;;9.00;;
75854;SDS011;64502;59.976;30.316;2024-01-27T00:15:47;19.55;;;8.15;;
75854;SDS011;64502;59.976;30.316;2024-01-27T00:18:12;16.48;;;8.30;;
75854;SDS011;64502;59.976;30.316;2024-01-27T00:20:39;17.63;;;7.82;;
75854;SDS011;64502;59.976;30.316;2024-01-27T00:23:05;14.80;;;6.85;;
75854;SDS011;64502;59.976;30.316;2024-01-27T00:25:30;16.08;;;6.80;;
75854;SDS011;64502;59.976;30.316;2024-01-27T00:27:56;14.95;;;6.88;;
75854;SDS011;64502;59.976;30.316;2024-01-27T00:30:22;15.90;;;6.35;;
75854;SDS011;64502;59.976;30.316;2024-01-27T00:32:47;10.75;;;5.82;;
75854;SDS011;64502;59.976;30.316;2024-01-27T00:35:13;12.10;;;4.97;;
75854;SDS011;64502;59.976;30.316;2024-01-27T00:37:40;10.88;;;4.47;;
75854;SDS011;64502;59.976;30.316;2024-01-27T00:40:11;9.00;;;3.70;;
75854;SDS011;64502;59.976;30.316;2024-01-27T00:42:37;7.90;;;3.83;;
75854;SDS011;64502;59.976;30.316;2024-01-27T00:45:03;7.70;;;3.85;;
75854;SDS011;64502;59.976;30.316;2024-01-27T00:47:30;5.53;;;2.88;;
75854;SDS011;64502;59.976;30.316;2024-01-27T00:49:56;5.47;;;2.67;;
75854;SDS011;64502;59.976;30.316;2024-01-27T00:52:22;7.75;;;3.15;;
75854;SDS011;64502;59.976;30.316;2024-01-27T00:54:47;8.23;;;3.38;;
75854;SDS011;64502;59.976;30.316;2024-01-27T00:57:13;7.30;;;2.95;;
75854;SDS011;64502;59.976;30.316;2024-01-27T00:59:39;7.35;;;3.15;;
75854;SDS011;64502;59.976;30.316;2024-01-27T01:02:04;8.20;;;3.22;;
75854;SDS011;64502;59.976;30.316;2024-01-27T01:04:29;8.32;;;4.20;;
75854;SDS011;64502;59.976;30.316;2024-01-27T01:06:55;7.00;;;3.50;;
75854;SDS011;64502;59.976;30.316;2024-01-27T01:09:21;9.38;;;3.63;;
75854;SDS011;64502;59.976;30.316;2024-01-27T01:11:47;10.27;;;3.58;;
75854;SDS011;64502;59.976;30.316;2024-01-27T01:14:13;11.43;;;4.75;;
75854;SDS011;64502;59.976;30.316;2024-01-27T01:16:39;9.80;;;3.97;;
75854;SDS011;64502;59.976;30.316;2024-01-27T01:19:05;8.95;;;3.75;;
75854;SDS011;64502;59.976;30.316;2024-01-27T01:21:31;12.93;;;4.47;;
75854;SDS011;64502;59.976;30.316;2024-01-27T01:23:56;8.80;;;4.15;;
75854;SDS011;64502;59.976;30.316;2024-01-27T01:26:22;11.80;;;4.32;;
75854;SDS011;64502;59.976;30.316;2024-01-27T01:28:48;8.20;;;4.07;;
75854;SDS011;64502;59.976;30.316;2024-01-27T01:31:13;13.13;;;4.53;;
75854;SDS011;64502;59.976;30.316;2024-01-27T01:33:39;10.60;;;4.20;;
75854;SDS011;64502;59.976;30.316;2024-01-27T01:36:04;11.07;;;4.25;;
75854;SDS011;64502;59.976;30.316;2024-01-27T01:38:30;10.43;;;4.53;;
75854;SDS011;64502;59.976;30.316;2024-01-27T01:40:55;13.55;;;4.50;;
75854;SDS011;64502;59.976;30.316;2024-01-27T01:43:21;11.85;;;5.32;;
75854;SDS011;64502;59.976;30.316;2024-01-27T01:45:47;12.43;;;5.15;;
75854;SDS011;64502;59.976;30.316;2024-01-27T01:48:12;12.70;;;4.70;;
75854;SDS011;64502;59.976;30.316;2024-01-27T01:50:38;11.50;;;5.43;;
75854;SDS011;64502;59.976;30.316;2024-01-27T01:53:03;15.00;;;5.03;;
75854;SDS011;64502;59.976;30.316;2024-01-27T01:55:30;13.45;;;5.03;;
75854;SDS011;64502;59.976;30.316;2024-01-27T01:57:56;8.88;;;3.65;;
75854;SDS011;64502;59.976;30.316;2024-01-27T02:00:21;12.65;;;5.22;;
75854;SDS011;64502;59.976;30.316;2024-01-27T02:02:47;12.48;;;4.75;;
75854;SDS011;64502;59.976;30.316;2024-01-27T02:05:13;10.48;;;4.07;;
75854;SDS011;64502;59.976;30.316;2024-01-27T02:07:39;11.00;;;4.30;;
75854;SDS011;64502;59.976;30.316;2024-01-27T02:10:05;10.95;;;4.88;;
75854;SDS011;64502;59.976;30.316;2024-01-27T02:12:37;13.23;;;4.70;;
75854;SDS011;64502;59.976;30.316;2024-01-27T02:15:03;15.00;;;5.13;;
75854;SDS011;64502;59.976;30.316;2024-01-27T02:17:29;11.57;;;4.05;;
75854;SDS011;64502;59.976;30.316;2024-01-27T02:19:55;10.88;;;3.63;;
75854;SDS011;64502;59.976;30.316;2024-01-27T02:22:21;9.20;;;3.72;;
75854;SDS011;64502;59.976;30.316;2024-01-27T02:24:46;10.82;;;4.30;;
75854;SDS011;64502;59.976;30.316;2024-01-27T02:27:12;10.75;;;4.63;;
75854;SDS011;64502;59.976;30.316;2024-01-27T02:29:37;11.43;;;4.30;;
75854;SDS011;64502;59.976;30.316;2024-01-27T02:32:03;10.00;;;4.07;;
75854;SDS011;64502;59.976;30.316;2024-01-27T02:34:29;11.05;;;4.50;;
75854;SDS011;64502;59.976;30.316;2024-01-27T02:36:55;11.90;;;4.07;;
75854;SDS011;64502;59.976;30.316;2024-01-27T02:39:20;8.00;;;3.45;;
75854;SDS011;64502;59.976;30.316;2024-01-27T02:41:46;7.07;;;3.60;;
75854;SDS011;64502;59.976;30.316;2024-01-27T02:44:12;7.55;;;3.10;;
75854;SDS011;64502;59.976;30.316;2024-01-27T02:46:37;5.85;;;2.78;;
75854;SDS011;64502;59.976;30.316;2024-01-27T02:49:03;7.40;;;3.25;;
75854;SDS011;64502;59.976;30.316;2024-01-27T02:51:29;6.15;;;2.33;;
75854;SDS011;64502;59.976;30.316;2024-01-27T02:53:54;5.32;;;2.58;;
75854;SDS011;64502;59.976;30.316;2024-01-27T02:56:20;5.82;;;2.85;;
75854;SDS011;64502;59.976;30.316;2024-01-27T02:58:45;4.25;;;2.38;;
75854;SDS011;64502;59.976;30.316;2024-01-27T03:01:10;5.43;;;2.40;;
75854;SDS011;64502;59.976;30.316;2024-01-27T03:03:36;5.45;;;2.38;;
75854;SDS011;64502;59.976;30.316;2024-01-27T03:06:01;7.90;;;3.13;;
75854;SDS011;64502;59.976;30.316;2024-01-27T03:08:27;5.90;;;2.95;;
75854;SDS011;64502;59.976;30.316;2024-01-27T03:10:53;5.38;;;2.83;;
75854;SDS011;64502;59.976;30.316;2024-01-27T03:13:18;5.65;;;2.40;;
75854;SDS011;64502;59.976;30.316;2024-01-27T03:15:44;8.88;;;3.50;;
75854;SDS011;64502;59.976;30.316;2024-01-27T03:18:09;9.30;;;4.05;;
75854;SDS011;64502;59.976;30.316;2024-01-27T03:20:35;9.35;;;3.85;;
75854;SDS011;64502;59.976;30.316;2024-01-27T03:23:01;6.85;;;3.58;;
75854;SDS011;64502;59.976;30.316;2024-01-27T03:25:26;5.75;;;2.80;;
75854;SDS011;64502;59.976;30.316;2024-01-27T03:27:52;6.57;;;3.20;;
75854;SDS011;64502;59.976;30.316;2024-01-27T03:30:18;6.32;;;3.00;;
75854;SDS011;64502;59.976;30.316;2024-01-27T03:32:43;6.93;;;2.70;;
75854;SDS011;64502;59.976;30.316;2024-01-27T03:35:09;9.60;;;3.67;;
75854;SDS011;64502;59.976;30.316;2024-01-27T03:37:34;9.65;;;4.22;;
75854;SDS011;64502;59.976;30.316;2024-01-27T03:40:00;8.32;;;3.92;;
75854;SDS011;64502;59.976;30.316;2024-01-27T03:42:26;7.22;;;3.20;;
75854;SDS011;64502;59.976;30.316;2024-01-27T03:44:52;7.25;;;3.33;;
75854;SDS011;64502;59.976;30.316;2024-01-27T03:47:17;8.23;;;3.08;;
75854;SDS011;64502;59.976;30.316;2024-01-27T03:49:43;7.15;;;2.83;;
75854;SDS011;64502;59.976;30.316;2024-01-27T03:52:09;7.30;;;3.35;;
75854;SDS011;64502;59.976;30.316;2024-01-27T03:54:39;8.95;;;3.75;;
75854;SDS011;64502;59.976;30.316;2024-01-27T03:57:05;10.63;;;4.15;;
75854;SDS011;64502;59.976;30.316;2024-01-27T03:59:30;10.13;;;4.72;;
75854;SDS011;64502;59.976;30.316;2024-01-27T04:01:56;11.02;;;4.72;;
75854;SDS011;64502;59.976;30.316;2024-01-27T04:04:21;13.13;;;5.22;;
75854;SDS011;64502;59.976;30.316;2024-01-27T04:06:47;15.57;;;6.50;;
75854;SDS011;64502;59.976;30.316;2024-01-27T04:09:12;13.77;;;5.70;;
75854;SDS011;64502;59.976;30.316;2024-01-27T04:11:38;14.02;;;5.93;;
75854;SDS011;64502;59.976;30.316;2024-01-27T04:14:05;13.48;;;5.60;;
75854;SDS011;64502;59.976;30.316;2024-01-27T04:16:31;12.63;;;5.45;;
75854;SDS011;64502;59.976;30.316;2024-01-27T04:18:57;12.77;;;6.38;;
75854;SDS011;64502;59.976;30.316;2024-01-27T04:21:22;13.45;;;5.43;;
75854;SDS011;64502;59.976;30.316;2024-01-27T04:23:48;13.07;;;6.00;;
75854;SDS011;64502;59.976;30.316;2024-01-27T04:26:14;11.88;;;4.95;;
75854;SDS011;64502;59.976;30.316;2024-01-27T04:28:39;12.80;;;4.90;;
75854;SDS011;64502;59.976;30.316;2024-01-27T04:31:05;14.98;;;5.43;;
75854;SDS011;64502;59.976;30.316;2024-01-27T04:33:31;15.40;;;5.97;;
75854;SDS011;64502;59.976;30.316;2024-01-27T04:35:57;15.43;;;6.22;;
75854;SDS011;64502;59.976;30.316;2024-01-27T04:38:23;13.50;;;5.32;;
75854;SDS011;64502;59.976;30.316;2024-01-27T04:40:49;11.95;;;5.60;;
75854;SDS011;64502;59.976;30.316;2024-01-27T04:43:15;14.40;;;5.57;;
75854;SDS011;64502;59.976;30.316;2024-01-27T04:45:41;10.60;;;4.72;;
75854;SDS011;64502;59.976;30.316;2024-01-27T04:48:07;13.77;;;5.95;;
75854;SDS011;64502;59.976;30.316;2024-01-27T04:50:32;13.10;;;4.63;;
75854;SDS011;64502;59.976;30.316;2024-01-27T04:52:58;15.88;;;5.70;;
75854;SDS011;64502;59.976;30.316;2024-01-27T04:55:23;13.65;;;6.72;;
75854;SDS011;64502;59.976;30.316;2024-01-27T04:57:50;14.70;;;6.30;;
75854;SDS011;64502;59.976;30.316;2024-01-27T05:00:15;12.60;;;5.30;;
75854;SDS011;64502;59.976;30.316;2024-01-27T05:02:41;17.17;;;6.32;;
75854;SDS011;64502;59.976;30.316;2024-01-27T05:05:07;12.93;;;5.40;;
75854;SDS011;64502;59.976;30.316;2024-01-27T05:07:33;14.50;;;6.72;;
75854;SDS011;64502;59.976;30.316;2024-01-27T05:09:59;14.23;;;6.03;;
75854;SDS011;64502;59.976;30.316;2024-01-27T05:12:25;14.15;;;6.13;;
75854;SDS011;64502;59.976;30.316;2024-01-27T05:14:50;15.05;;;6.50;;
75854;SDS011;64502;59.976;30.316;2024-01-27T05:17:16;13.85;;;6.13;;
75854;SDS011;64502;59.976;30.316;2024-01-27T05:19:42;16.63;;;6.40;;
75854;SDS011;64502;59.976;30.316;2024-01-27T05:22:07;16.48;;;7.53;;
75854;SDS011;64502;59.976;30.316;2024-01-27T05:24:33;16.13;;;7.03;;
75854;SDS011;64502;59.976;30.316;2024-01-27T05:26:59;11.85;;;5.32;;
75854;SDS011;64502;59.976;30.316;2024-01-27T05:29:26;17.48;;;7.80;;
75854;SDS011;64502;59.976;30.316;2024-01-27T05:31:52;13.32;;;5.85;;
75854;SDS011;64502;59.976;30.316;2024-01-27T05:34:18;12.50;;;5.28;;
75854;SDS011;64502;59.976;30.316;2024-01-27T05:36:44;14.25;;;5.70;;
75854;SDS011;64502;59.976;30.316;2024-01-27T05:39:09;14.63;;;6.07;;
75854;SDS011;64502;59.976;30.316;2024-01-27T05:41:35;11.82;;;5.35;;
75854;SDS011;64502;59.976;30.316;2024-01-27T05:44:00;12.57;;;4.57;;
75854;SDS011;64502;59.976;30.316;2024-01-27T05:46:26;14.95;;;6.18;;
75854;SDS011;64502;59.976;30.316;2024-01-27T05:48:52;12.23;;;5.05;;
75854;SDS011;64502;59.976;30.316;2024-01-27T05:51:22;15.48;;;6.20;;
75854;SDS011;64502;59.976;30.316;2024-01-27T05:53:48;16.10;;;6.38;;
75854;SDS011;64502;59.976;30.316;2024-01-27T05:56:14;17.38;;;7.85;;
75854;SDS011;64502;59.976;30.316;2024-01-27T05:58:40;16.08;;;7.93;;
75854;SDS011;64502;59.976;30.316;2024-01-27T06:01:06;16.38;;;6.20;;
75854;SDS011;64502;59.976;30.316;2024-01-27T06:03:33;15.60;;;6.70;;
75854;SDS011;64502;59.976;30.316;2024-01-27T06:06:00;13.57;;;6.65;;
75854;SDS011;64502;59.976;30.316;2024-01-27T06:08:26;13.75;;;6.25;;
75854;SDS011;64502;59.976;30.316;2024-01-27T06:10:51;12.52;;;5.38;;
75854;SDS011;64502;59.976;30.316;2024-01-27T06:13:17;12.18;;;5.05;;
75854;SDS011;64502;59.976;30.316;2024-01-27T06:15:42;10.68;;;4.68;;
75854;SDS011;64502;59.976;30.316;2024-01-27T06:18:08;12.98;;;5.80;;
75854;SDS011;64502;59.976;30.316;2024-01-27T06:20:33;13.07;;;4.75;;
75854;SDS011;64502;59.976;30.316;2024-01-27T06:22:59;12.85;;;5.38;;
75854;SDS011;64502;59.976;30.316;2024-01-27T06:25:24;11.50;;;4.88;;
75854;SDS011;64502;59.976;30.316;2024-01-27T06:27:50;13.07;;;5.10;;
75854;SDS011;64502;59.976;30.316;2024-01-27T06:30:16;14.38;;;5.15;;
75854;SDS011;64502;59.976;30.316;2024-01-27T06:32:41;12.18;;;5.70;;
75854;SDS011;64502;59.976;30.316;2024-01-27T06:35:07;12.65;;;4.88;;
75854;SDS011;64502;59.976;30.316;2024-01-27T06:37:33;13.88;;;5.47;;
75854;SDS011;64502;59.976;30.316;2024-01-27T06:39:59;12.07;;;5.13;;
75854;SDS011;64502;59.976;30.316;2024-01-27T06:42:24;12.57;;;5.40;;
75854;SDS011;64502;59.976;30.316;2024-01-27T06:44:50;12.32;;;4.63;;
75854;SDS011;64502;59.976;30.316;2024-01-27T06:47:15;12.52;;;5.15;;
75854;SDS011;64502;59.976;30.316;2024-01-27T06:49:41;12.48;;;5.95;;
75854;SDS011;64502;59.976;30.316;2024-01-27T06:52:07;11.82;;;5.35;;
75854;SDS011;64502;59.976;30.316;2024-01-27T06:54:32;11.52;;;5.22;;
75854;SDS011;64502;59.976;30.316;2024-01-27T06:57:01;14.20;;;5.88;;
75854;SDS011;64502;59.976;30.316;2024-01-27T06:59:27;11.63;;;5.47;;
75854;SDS011;64502;59.976;30.316;2024-01-27T07:01:53;14.43;;;5.53;;
75854;SDS011;64502;59.976;30.316;2024-01-27T07:04:19;16.40;;;7.28;;
75854;SDS011;64502;59.976;30.316;2024-01-27T07:06:44;14.38;;;5.75;;
75854;SDS011;64502;59.976;30.316;2024-01-27T07:09:10;18.83;;;7.00;;
75854;SDS011;64502;59.976;30.316;2024-01-27T07:11:36;16.58;;;6.63;;
75854;SDS011;64502;59.976;30.316;2024-01-27T07:14:05;16.17;;;7.50;;
75854;SDS011;64502;59.976;30.316;2024-01-27T07:16:33;14.50;;;6.47;;
75854;SDS011;64502;59.976;30.316;2024-01-27T07:19:00;12.65;;;5.72;;
75854;SDS011;64502;59.976;30.316;2024-01-27T07:21:25;16.40;;;6.90;;
75854;SDS011;64502;59.976;30.316;2024-01-27T07:23:52;14.07;;;6.00;;
75854;SDS011;64502;59.976;30.316;2024-01-27T07:26:18;13.60;;;5.55;;
75854;SDS011;64502;59.976;30.316;2024-01-27T07:28:44;14.45;;;5.68;;
75854;SDS011;64502;59.976;30.316;2024-01-27T07:31:09;11.95;;;5.45;;
75854;SDS011;64502;59.976;30.316;2024-01-27T07:33:36;11.20;;;4.63;;
75854;SDS011;64502;59.976;30.316;2024-01-27T07:36:03;10.00;;;4.35;;
75854;SDS011;64502;59.976;30.316;2024-01-27T07:38:29;13.75;;;4.88;;
75854;SDS011;64502;59.976;30.316;2024-01-27T07:40:55;9.75;;;4.00;;
75854;SDS011;64502;59.976;30.316;2024-01-27T07:43:20;13.65;;;4.35;;
75854;SDS011;64502;59.976;30.316;2024-01-27T07:45:46;9.80;;;3.40;;
75854;SDS011;64502;59.976;30.316;2024-01-27T07:48:11;11.63;;;5.32;;
75854;SDS011;64502;59.976;30.316;2024-01-27T07:50:37;11.23;;;4.45;;
75854;SDS011;64502;59.976;30.316;2024-01-27T07:53:03;8.90;;;3.20;;
75854;SDS011;64502;59.976;30.316;2024-01-27T07:55:29;13.52;;;5.30;;
75854;SDS011;64502;59.976;30.316;2024-01-27T07:57:54;12.05;;;5.53;;
75854;SDS011;64502;59.976;30.316;2024-01-27T08:00:19;10.35;;;4.28;;
75854;SDS011;64502;59.976;30.316;2024-01-27T08:02:45;10.15;;;4.75;;
75854;SDS011;64502;59.976;30.316;2024-01-27T08:05:11;11.18;;;4.53;;
75854;SDS011;64502;59.976;30.316;2024-01-27T08:07:36;9.38;;;4.13;;
75854;SDS011;64502;59.976;30.316;2024-01-27T08:10:02;7.72;;;3.17;;
75854;SDS011;64502;59.976;30.316;2024-01-27T08:12:29;8.98;;;3.65;;
75854;SDS011;64502;59.976;30.316;2024-01-27T08:14:55;9.88;;;3.65;;
75854;SDS011;64502;59.976;30.316;2024-01-27T08:17:21;10.77;;;4.40;;
75854;SDS011;64502;59.976;30.316;2024-01-27T08:19:46;9.75;;;4.32;;
75854;SDS011;64502;59.976;30.316;2024-01-27T08:22:12;13.07;;;4.93;;
75854;SDS011;64502;59.976;30.316;2024-01-27T08:24:38;10.55;;;4.57;;
75854;SDS011;64502;59.976;30.316;2024-01-27T08:27:04;10.30;;;4.70;;
75854;SDS011;64502;59.976;30.316;2024-01-27T08:29:30;10.18;;;4.68;;
75854;SDS011;64502;59.976;30.316;2024-01-27T08:31:56;11.43;;;4.55;;
75854;SDS011;64502;59.976;30.316;2024-01-27T08:34:21;13.90;;;5.05;;
75854;SDS011;64502;59.976;30.316;2024-01-27T08:36:49;9.57;;;4.18;;
75854;SDS011;64502;59.976;30.316;2024-01-27T08:39:15;11.00;;;4.43;;
75854;SDS011;64502;59.976;30.316;2024-01-27T08:41:40;10.70;;;4.45;;
75854;SDS011;64502;59.976;30.316;2024-01-27T08:44:06;10.15;;;4.55;;
75854;SDS011;64502;59.976;30.316;2024-01-27T08:46:31;10.85;;;4.20;;
75854;SDS011;64502;59.976;30.316;2024-01-27T08:48:57;14.40;;;4.95;;
75854;SDS011;64502;59.976;30.316;2024-01-27T08:51:22;11.52;;;4.78;;
75854;SDS011;64502;59.976;30.316;2024-01-27T08:53:48;11.52;;;4.75;;
75854;SDS011;64502;59.976;30.316;2024-01-27T08:56:17;12.07;;;5.35;;
75854;SDS011;64502;59.976;30.316;2024-01-27T08:58:46;13.00;;;5.07;;
75854;SDS011;64502;59.976;30.316;2024-01-27T09:01:18;11.35;;;5.07;;
75854;SDS011;64502;59.976;30.316;2024-01-27T09:03:44;14.20;;;4.90;;
75854;SDS011;64502;59.976;30.316;2024-01-27T09:06:10;11.18;;;5.43;;
75854;SDS011;64502;59.976;30.316;2024-01-27T09:08:36;8.50;;;4.30;;
75854;SDS011;64502;59.976;30.316;2024-01-27T09:11:02;10.38;;;5.53;;
75854;SDS011;64502;59.976;30.316;2024-01-27T09:13:28;12.38;;;4.82;;
75854;SDS011;64502;59.976;30.316;2024-01-27T09:15:54;11.40;;;4.40;;
75854;SDS011;64502;59.976;30.316;2024-01-27T09:18:21;12.15;;;3.78;;
75854;SDS011;64502;59.976;30.316;2024-01-27T09:20:47;8.52;;;3.80;;
75854;SDS011;64502;59.976;30.316;2024-01-27T09:23:13;10.55;;;4.95;;
75854;SDS011;64502;59.976;30.316;2024-01-27T09:25:39;9.25;;;4.50;;
75854;SDS011;64502;59.976;30.316;2024-01-27T09:28:04;8.35;;;4.28;;
75854;SDS011;64502;59.976;30.316;2024-01-27T09:30:30;8.02;;;3.80;;
75854;SDS011;64502;59.976;30.316;2024-01-27T09:32:55;9.88;;;4.07;;
75854;SDS011;64502;59.976;30.316;2024-01-27T09:35:21;9.82;;;4.53;;
75854;SDS011;64502;59.976;30.316;2024-01-27T09:37:46;9.13;;;3.70;;
75854;SDS011;64502;59.976;30.316;2024-01-27T09:40:16;8.68;;;3.35;;
75854;SDS011;64502;59.976;30.316;2024-01-27T09:42:43;8.13;;;3.55;;
75854;SDS011;64502;59.976;30.316;2024-01-27T09:45:18;6.50;;;3.08;;
75854;SDS011;64502;59.976;30.316;2024-01-27T09:47:45;5.93;;;3.22;;
75854;SDS011;64502;59.976;30.316;2024-01-27T09:50:11;6.72;;;3.13;;
75854;SDS011;64502;59.976;30.316;2024-01-27T09:52:37;6.38;;;2.92;;
75854;SDS011;64502;59.976;30.316;2024-01-27T09:55:03;9.27;;;3.58;;
75854;SDS011;64502;59.976;30.316;2024-01-27T09:57:29;7.18;;;3.25;;
75854;SDS011;64502;59.976;30.316;2024-01-27T09:59:55;7.35;;;3.33;;
75854;SDS011;64502;59.976;30.316;2024-01-27T10:02:22;8.75;;;2.97;;
75854;SDS011;64502;59.976;30.316;2024-01-27T10:04:49;6.57;;;3.15;;
75854;SDS011;64502;59.976;30.316;2024-01-27T10:07:16;7.10;;;3.10;;
75854;SDS011;64502;59.976;30.316;2024-01-27T10:09:42;8.30;;;3.83;;
75854;SDS011;64502;59.976;30.316;2024-01-27T10:12:09;7.78;;;3.65;;
75854;SDS011;64502;59.976;30.316;2024-01-27T10:14:38;9.25;;;3.47;;
75854;SDS011;64502;59.976;30.316;2024-01-27T10:17:05;10.48;;;3.30;;
75854;SDS011;64502;59.976;30.316;2024-01-27T10:19:30;6.32;;;3.00;;
75854;SDS011;64502;59.976;30.316;2024-01-27T10:22:00;6.60;;;2.60;;
75854;SDS011;64502;59.976;30.316;2024-01-27T10:24:27;5.85;;;3.13;;
75854;SDS011;64502;59.976;30.316;2024-01-27T10:27:00;5.80;;;2.88;;
75854;SDS011;64502;59.976;30.316;2024-01-27T10:29:26;7.05;;;2.83;;
75854;SDS011;64502;59.976;30.316;2024-01-27T10:31:52;10.93;;;3.33;;
75854;SDS011;64502;59.976;30.316;2024-01-27T10:34:20;8.45;;;3.28;;
75854;SDS011;64502;59.976;30.316;2024-01-27T10:36:46;5.38;;;2.88;;
75854;SDS011;64502;59.976;30.316;2024-01-27T10:39:19;7.00;;;3.22;;
75854;SDS011;64502;59.976;30.316;2024-01-27T10:41:46;8.05;;;3.50;;
75854;SDS011;64502;59.976;30.316;2024-01-27T10:44:14;6.72;;;3.17;;
75854;SDS011;64502;59.976;30.316;2024-01-27T10:46:44;10.55;;;3.75;;
75854;SDS011;64502;59.976;30.316;2024-01-27T10:49:17;6.32;;;3.22;;
75854;SDS011;64502;59.976;30.316;2024-01-27T10:51:50;6.07;;;3.10;;
75854;SDS011;64502;59.976;30.316;2024-01-27T10:54:26;8.25;;;3.40;;
75854;SDS011;64502;59.976;30.316;2024-01-27T10:56:53;5.60;;;2.17;;
75854;SDS011;64502;59.976;30.316;2024-01-27T10:59:21;7.65;;;3.30;;
75854;SDS011;64502;59.976;30.316;2024-01-27T11:01:48;7.60;;;3.08;;
75854;SDS011;64502;59.976;30.316;2024-01-27T11:04:17;6.43;;;3.22;;
75854;SDS011;64502;59.976;30.316;2024-01-27T11:06:44;13.55;;;4.28;;
75854;SDS011;64502;59.976;30.316;2024-01-27T11:09:12;8.25;;;3.42;;
75854;SDS011;64502;59.976;30.316;2024-01-27T11:11:39;8.40;;;3.30;;
75854;SDS011;64502;59.976;30.316;2024-01-27T11:14:07;7.13;;;3.38;;
75854;SDS011;64502;59.976;30.316;2024-01-27T11:16:36;7.95;;;3.65;;
75854;SDS011;64502;59.976;30.316;2024-01-27T11:19:08;10.00;;;3.58;;
75854;SDS011;64502;59.976;30.316;2024-01-27T11:21:35;8.75;;;4.07;;
75854;SDS011;64502;59.976;30.316;2024-01-27T11:24:11;8.13;;;3.50;;
75854;SDS011;64502;59.976;30.316;2024-01-27T11:26:38;9.13;;;3.60;;
75854;SDS011;64502;59.976;30.316;2024-01-27T11:29:06;6.68;;;2.85;;
75854;SDS011;64502;59.976;30.316;2024-01-27T11:31:43;8.93;;;3.92;;
75854;SDS011;64502;59.976;30.316;2024-01-27T11:34:10;5.63;;;2.85;;
75854;SDS011;64502;59.976;30.316;2024-01-27T11:36:42;7.82;;;3.85;;
75854;SDS011;64502;59.976;30.316;2024-01-27T11:39:22;8.02;;;3.65;;
75854;SDS011;64502;59.976;30.316;2024-01-27T11:42:06;8.30;;;3.65;;
75854;SDS011;64502;59.976;30.316;2024-01-27T11:44:40;6.68;;;3.40;;
75854;SDS011;64502;59.976;30.316;2024-01-27T11:47:16;8.43;;;3.85;;
75854;SDS011;64502;59.976;30.316;2024-01-27T11:49:44;7.13;;;3.28;;
75854;SDS011;64502;59.976;30.316;2024-01-27T11:52:18;11.70;;;3.08;;
75854;SDS011;64502;59.976;30.316;2024-01-27T11:54:44;6.90;;;3.13;;
75854;SDS011;64502;59.976;30.316;2024-01-27T11:57:10;7.68;;;3.42;;
75854;SDS011;64502;59.976;30.316;2024-01-27T11:59:35;8.40;;;3.47;;
75854;SDS011;64502;59.976;30.316;2024-01-27T12:02:01;7.50;;;4.13;;
75854;SDS011;64502;59.976;30.316;2024-01-27T12:04:27;8.23;;;3.20;;
75854;SDS011;64502;59.976;30.316;2024-01-27T12:06:53;6.15;;;3.20;;
75854;SDS011;64502;59.976;30.316;2024-01-27T12:09:19;9.10;;;3.90;;
75854;SDS011;64502;59.976;30.316;2024-01-27T12:11:45;7.60;;;3.03;;
75854;SDS011;64502;59.976;30.316;2024-01-27T12:14:11;8.18;;;3.50;;
75854;SDS011;64502;59.976;30.316;2024-01-27T12:16:37;6.63;;;2.97;;
75854;SDS011;64502;59.976;30.316;2024-01-27T12:19:03;6.70;;;3.70;;
75854;SDS011;64502;59.976;30.316;2024-01-27T12:21:29;6.93;;;3.65;;
75854;SDS011;64502;59.976;30.316;2024-01-27T12:23:55;6.68;;;3.08;;
75854;SDS011;64502;59.976;30.316;2024-01-27T12:26:22;7.03;;;3.22;;
75854;SDS011;64502;59.976;30.316;2024-01-27T12:28:50;8.23;;;3.58;;
75854;SDS011;64502;59.976;30.316;2024-01-27T12:31:16;8.32;;;3.35;;
75854;SDS011;64502;59.976;30.316;2024-01-27T12:33:51;8.23;;;3.53;;
75854;SDS011;64502;59.976;30.316;2024-01-27T12:36:19;7.65;;;3.30;;
75854;SDS011;64502;59.976;30.316;2024-01-27T12:38:58;6.78;;;2.92;;
75854;SDS011;64502;59.976;30.316;2024-01-27T12:41:25;6.05;;;2.33;;
75854;SDS011;64502;59.976;30.316;2024-01-27T12:43:51;6.55;;;2.97;;
75854;SDS011;64502;59.976;30.316;2024-01-27T12:46:17;7.13;;;2.75;;
75854;SDS011;64502;59.976;30.316;2024-01-27T12:48:44;6.68;;;2.85;;
75854;SDS011;64502;59.976;30.316;2024-01-27T12:51:10;6.18;;;2.97;;
75854;SDS011;64502;59.976;30.316;2024-01-27T12:53:38;4.60;;;2.28;;
75854;SDS011;64502;59.976;30.316;2024-01-27T12:56:07;5.47;;;2.67;;
75854;SDS011;64502;59.976;30.316;2024-01-27T12:58:33;4.50;;;2.35;;
75854;SDS011;64502;59.976;30.316;2024-01-27T13:00:59;5.38;;;1.70;;
75854;SDS011;64502;59.976;30.316;2024-01-27T13:03:24;6.88;;;2.17;;
75854;SDS011;64502;59.976;30.316;2024-01-27T13:05:50;5.65;;;1.80;;
75854;SDS011;64502;59.976;30.316;2024-01-27T13:08:15;5.72;;;1.65;;
75854;SDS011;64502;59.976;30.316;2024-01-27T13:10:41;4.63;;;1.65;;
75854;SDS011;64502;59.976;30.316;2024-01-27T13:13:06;3.70;;;1.42;;
75854;SDS011;64502;59.976;30.316;2024-01-27T13:15:32;4.05;;;1.90;;
75854;SDS011;64502;59.976;30.316;2024-01-27T13:17:57;5.22;;;1.85;;
75854;SDS011;64502;59.976;30.316;2024-01-27T13:20:23;5.40;;;2.13;;
75854;SDS011;64502;59.976;30.316;2024-01-27T13:22:48;4.55;;;1.67;;
75854;SDS011;64502;59.976;30.316;2024-01-27T13:25:16;6.07;;;1.98;;
75854;SDS011;64502;59.976;30.316;2024-01-27T13:27:41;5.03;;;2.00;;
75854;SDS011;64502;59.976;30.316;2024-01-27T13:30:07;4.95;;;1.90;;
75854;SDS011;64502;59.976;30.316;2024-01-27T13:32:34;3.65;;;1.48;;
75854;SDS011;64502;59.976;30.316;2024-01-27T13:34:59;3.13;;;1.33;;
75854;SDS011;64502;59.976;30.316;2024-01-27T13:37:25;4.85;;;2.25;;
75854;SDS011;64502;59.976;30.316;2024-01-27T13:39:51;4.78;;;2.15;;
75854;SDS011;64502;59.976;30.316;2024-01-27T13:42:16;4.95;;;2.33;;
75854;SDS011;64502;59.976;30.316;2024-01-27T13:44:42;6.90;;;2.38;;
75854;SDS011;64502;59.976;30.316;2024-01-27T13:47:08;8.25;;;2.67;;
75854;SDS011;64502;59.976;30.316;2024-01-27T13:49:34;9.15;;;2.10;;
75854;SDS011;64502;59.976;30.316;2024-01-27T13:52:00;15.77;;;3.00;;
75854;SDS011;64502;59.976;30.316;2024-01-27T13:54:26;4.95;;;1.98;;
75854;SDS011;64502;59.976;30.316;2024-01-27T13:56:51;9.25;;;3.53;;
75854;SDS011;64502;59.976;30.316;2024-01-27T13:59:17;5.63;;;2.85;;
75854;SDS011;64502;59.976;30.316;2024-01-27T14:01:42;7.85;;;3.13;;
75854;SDS011;64502;59.976;30.316;2024-01-27T14:04:08;5.32;;;1.92;;
75854;SDS011;64502;59.976;30.316;2024-01-27T14:06:34;8.60;;;2.45;;
75854;SDS011;64502;59.976;30.316;2024-01-27T14:09:00;6.13;;;2.60;;
75854;SDS011;64502;59.976;30.316;2024-01-27T14:11:27;6.25;;;2.88;;
75854;SDS011;64502;59.976;30.316;2024-01-27T14:13:53;4.22;;;2.03;;
75854;SDS011;64502;59.976;30.316;2024-01-27T14:16:18;6.07;;;2.50;;
75854;SDS011;64502;59.976;30.316;2024-01-27T14:18:44;5.07;;;2.17;;
75854;SDS011;64502;59.976;30.316;2024-01-27T14:21:10;5.13;;;2.00;;
75854;SDS011;64502;59.976;30.316;2024-01-27T14:23:36;3.70;;;1.80;;